Time;durP1;ratioP1;P1;durP2;ratioP2;P2;SDS_P1;SDS_P2;PMS_P1;PMS_P2;Temp;Humidity;BMP_temperature;BMP_pressure;BME280_temperature;BME280_humidity;BME280_pressure;Samples;Min_cycle;Max_cycle;Signal;HPM_P1;HPM_P2
2021/03/25 00:02:08;;;;;;;58.30;29.52;;;;;;;4.04;100.00;101984.66;5102212;28;20059;-61
2021/03/25 00:04:34;;;;;;;56.78;29.83;;;;;;;4.11;100.00;101974.56;5100733;28;20551;-61
2021/03/25 00:07:01;;;;;;;53.70;28.75;;;;;;;4.18;100.00;101976.03;5107822;28;20104;-63
2021/03/25 00:09:31;;;;;;;57.13;30.50;;;;;;;4.21;100.00;101976.78;5091869;28;20170;-62
2021/03/25 00:11:57;;;;;;;56.83;30.50;;;;;;;4.14;100.00;101970.00;5100221;28;20059;-61
2021/03/25 00:14:24;;;;;;;57.00;30.05;;;;;;;4.09;100.00;101971.97;5110411;28;20047;-61
2021/03/25 00:16:50;;;;;;;56.92;28.73;;;;;;;3.96;100.00;101970.78;5107511;27;20047;-62
2021/03/25 00:19:16;;;;;;;56.72;29.48;;;;;;;3.94;100.00;101962.84;5109488;28;20127;-61
2021/03/25 00:21:43;;;;;;;49.08;29.05;;;;;;;4.03;100.00;101958.94;5107556;28;20097;-61
2021/03/25 00:24:13;;;;;;;56.15;28.77;;;;;;;4.07;100.00;101955.22;5108272;28;20051;-61
2021/03/25 00:26:40;;;;;;;56.90;29.75;;;;;;;4.01;100.00;101961.66;5102495;28;20044;-61
2021/03/25 00:29:06;;;;;;;53.75;29.08;;;;;;;3.98;100.00;101960.94;5109281;28;20059;-64
2021/03/25 00:31:32;;;;;;;52.03;29.40;;;;;;;3.91;100.00;101956.81;5106370;28;20148;-61
2021/03/25 00:33:58;;;;;;;55.50;29.80;;;;;;;3.86;100.00;101968.53;5107714;27;20798;-63
2021/03/25 00:36:24;;;;;;;52.03;28.70;;;;;;;3.90;100.00;101963.06;5109598;28;20056;-63
2021/03/25 00:38:50;;;;;;;53.95;30.77;;;;;;;3.77;100.00;101957.38;5109031;27;20134;-61
2021/03/25 00:41:17;;;;;;;55.72;29.67;;;;;;;3.82;100.00;101953.59;5102368;27;20047;-61
2021/03/25 00:43:43;;;;;;;62.05;30.40;;;;;;;3.91;100.00;101957.66;5109883;27;20059;-62
2021/03/25 00:46:09;;;;;;;64.80;31.50;;;;;;;3.85;100.00;101956.13;5108390;28;20062;-64
2021/03/25 00:48:35;;;;;;;54.80;27.40;;;;;;;3.97;100.00;101953.88;5102702;28;20040;-63
2021/03/25 00:51:02;;;;;;;57.53;29.80;;;;;;;4.06;100.00;101953.47;5101878;28;20063;-63
2021/03/25 00:53:33;;;;;;;54.97;29.13;;;;;;;4.11;100.00;101947.94;5100838;28;20044;-61
2021/03/25 00:56:00;;;;;;;55.28;29.70;;;;;;;4.08;100.00;101948.97;5109423;28;20043;-61
2021/03/25 00:58:26;;;;;;;59.35;30.52;;;;;;;4.00;100.00;101945.75;5109766;28;20039;-62
2021/03/25 01:00:54;;;;;;;51.20;28.00;;;;;;;4.01;100.00;101948.34;5102734;28;20397;-61
2021/03/25 01:03:23;;;;;;;60.10;30.23;;;;;;;4.02;100.00;101949.22;5097172;28;20048;-61
2021/03/25 01:05:49;;;;;;;61.95;29.77;;;;;;;4.06;100.00;101942.81;5109650;27;20043;-62
2021/03/25 01:08:15;;;;;;;54.97;29.50;;;;;;;4.13;100.00;101949.59;5103753;28;20086;-61
2021/03/25 01:10:45;;;;;;;55.22;29.15;;;;;;;4.15;100.00;101950.41;5096473;28;20044;-61
2021/03/25 01:13:14;;;;;;;56.10;29.40;;;;;;;4.11;100.00;101943.50;5106850;28;20129;-61
2021/03/25 01:15:40;;;;;;;57.00;28.95;;;;;;;4.18;100.00;101939.63;5109647;27;20507;-61
2021/03/25 01:18:08;;;;;;;52.53;28.70;;;;;;;4.23;100.00;101939.41;5105511;28;20055;-61
2021/03/25 01:20:36;;;;;;;51.20;27.67;;;;;;;4.24;100.00;101934.94;5103829;27;20042;-61
2021/03/25 01:23:02;;;;;;;51.63;29.30;;;;;;;4.24;100.00;101937.59;5109744;28;20123;-61
2021/03/25 01:25:28;;;;;;;54.88;28.60;;;;;;;4.23;100.00;101941.22;5108029;28;20506;-61
2021/03/25 01:27:55;;;;;;;57.95;29.88;;;;;;;4.18;100.00;101944.06;5107881;28;20048;-64
2021/03/25 01:30:22;;;;;;;51.22;28.95;;;;;;;4.19;100.00;101936.00;5101438;28;20051;-61
2021/03/25 01:32:49;;;;;;;51.33;27.63;;;;;;;4.21;100.00;101951.94;5104065;28;20058;-61
2021/03/25 01:35:16;;;;;;;62.10;31.77;;;;;;;4.28;100.00;101944.53;5109745;28;20053;-61
2021/03/25 01:37:43;;;;;;;59.83;31.17;;;;;;;4.40;100.00;101941.31;5106597;27;20063;-64
2021/03/25 01:40:13;;;;;;;64.78;34.20;;;;;;;4.54;100.00;101940.69;5097995;28;20040;-62
2021/03/25 01:42:39;;;;;;;68.72;33.75;;;;;;;4.66;100.00;101939.25;5107618;28;20039;-61
2021/03/25 01:45:43;;;;;;;58.35;31.80;;;;;;;4.60;100.00;101936.88;5106447;28;20054;-63
2021/03/25 01:48:10;;;;;;;59.42;30.42;;;;;;;4.60;100.00;101928.88;5105362;28;20135;-61
2021/03/25 01:50:37;;;;;;;69.63;34.53;;;;;;;4.74;100.00;101937.09;5096811;28;20507;-62
2021/03/25 01:53:31;;;;;;;61.63;32.97;;;;;;;4.80;100.00;101942.16;5097812;28;20047;-61
2021/03/25 01:56:05;;;;;;;75.47;36.80;;;;;;;4.84;100.00;101933.03;5106718;28;20040;-62
2021/03/25 01:59:12;;;;;;;66.82;35.97;;;;;;;4.86;100.00;101936.53;5087102;28;20047;-63
2021/03/25 02:01:42;;;;;;;79.68;39.83;;;;;;;5.00;100.00;101933.19;5049219;28;20039;-63
2021/03/25 02:04:21;;;;;;;80.38;40.28;;;;;;;5.10;100.00;101928.28;5103558;28;20116;-61
2021/03/25 02:07:01;;;;;;;70.97;36.15;;;;;;;5.09;100.00;101926.53;5107178;28;20047;-62
2021/03/25 02:09:40;;;;;;;80.53;40.85;;;;;;;5.18;100.00;101928.78;5105977;28;20040;-61
2021/03/25 02:12:12;;;;;;;88.18;43.55;;;;;;;5.23;100.00;101934.75;5101805;27;20451;-61
2021/03/25 02:14:48;;;;;;;82.55;42.03;;;;;;;5.22;100.00;101933.00;5109510;28;20092;-60
2021/03/25 02:17:20;;;;;;;78.05;41.95;;;;;;;5.18;100.00;101928.78;5106370;28;20058;-63
2021/03/25 02:20:23;;;;;;;80.15;41.45;;;;;;;5.22;100.00;101938.34;5104748;28;20050;-61
2021/03/25 02:23:16;;;;;;;86.43;43.35;;;;;;;5.34;100.00;101925.34;5091000;28;20047;-62
2021/03/25 02:25:46;;;;;;;78.82;41.65;;;;;;;5.32;100.00;101927.25;5102250;28;20047;-61
2021/03/25 02:28:27;;;;;;;80.88;40.15;;;;;;;5.25;100.00;101921.31;5104400;28;20043;-62
2021/03/25 02:31:07;;;;;;;75.50;39.13;;;;;;;5.20;100.00;101928.72;5104391;28;20169;-61
2021/03/25 02:33:35;;;;;;;82.03;44.05;;;;;;;5.25;100.00;101932.00;5107114;28;20043;-61
2021/03/25 02:36:05;;;;;;;85.68;44.22;;;;;;;5.26;100.00;101931.06;5105015;28;20054;-61
2021/03/25 02:38:36;;;;;;;84.30;41.75;;;;;;;5.18;100.00;101922.56;5106391;28;20101;-60
2021/03/25 02:41:05;;;;;;;89.63;44.75;;;;;;;5.21;100.00;101923.28;5104024;28;20059;-61
2021/03/25 02:43:36;;;;;;;85.72;45.75;;;;;;;5.34;100.00;101931.53;5095427;28;20047;-61
2021/03/25 02:46:08;;;;;;;96.88;47.70;;;;;;;5.40;100.00;101930.38;5104026;28;20051;-61
2021/03/25 02:48:36;;;;;;;93.38;49.33;;;;;;;5.46;100.00;101923.88;5104769;28;20063;-61
2021/03/25 02:51:05;;;;;;;89.13;47.42;;;;;;;5.47;100.00;101930.94;5102404;28;20056;-61
2021/03/25 02:53:34;;;;;;;90.47;48.08;;;;;;;5.42;100.00;101928.53;5106312;28;20043;-63
2021/03/25 02:56:06;;;;;;;94.05;50.08;;;;;;;5.43;100.00;101916.88;5107781;28;20047;-61
2021/03/25 02:58:33;;;;;;;96.50;48.42;;;;;;;5.46;100.00;101924.72;5100430;28;20060;-61
2021/03/25 03:01:02;;;;;;;91.60;47.60;;;;;;;5.49;100.00;101924.59;5101267;28;20428;-61
2021/03/25 03:03:32;;;;;;;;;;;;;;;5.58;100.00;101916.13;5108580;28;20066;-62
2021/03/25 03:06:01;;;;;;;87.15;46.40;;;;;;;5.54;100.00;101916.34;5108370;28;19966;-62
2021/03/25 03:08:31;;;;;;;89.35;47.35;;;;;;;5.61;100.00;101917.78;5112309;28;20055;-63
2021/03/25 03:11:01;;;;;;;95.20;48.92;;;;;;;5.59;100.00;101920.53;5107055;28;20764;-61
2021/03/25 03:13:30;;;;;;;91.75;48.30;;;;;;;5.58;100.00;101917.91;5091453;28;20048;-62
2021/03/25 03:16:02;;;;;;;93.40;48.80;;;;;;;5.60;100.00;101919.56;5090637;28;20570;-61
2021/03/25 03:18:34;;;;;;;89.47;45.80;;;;;;;5.57;100.00;101910.84;5087896;28;20113;-63
2021/03/25 03:21:06;;;;;;;86.93;44.70;;;;;;;5.54;100.00;101911.88;5087570;28;20044;-63
2021/03/25 03:23:34;;;;;;;91.90;46.75;;;;;;;5.55;100.00;101915.38;5089807;28;20047;-63
2021/03/25 03:26:07;;;;;;;88.55;47.00;;;;;;;5.51;100.00;101912.03;5092261;28;20044;-62
2021/03/25 03:28:38;;;;;;;98.75;47.15;;;;;;;5.52;100.00;101913.75;5087489;28;21101;-62
2021/03/25 03:31:09;;;;;;;84.25;45.45;;;;;;;5.54;100.00;101914.53;5086697;28;20520;-61
2021/03/25 03:33:43;;;;;;;80.43;44.30;;;;;;;5.57;100.00;101903.69;5089379;28;20101;-63
2021/03/25 03:36:14;;;;;;;92.40;45.83;;;;;;;5.55;100.00;101910.94;5067655;22;20064;-61
2021/03/25 03:38:44;;;;;;;88.60;45.30;;;;;;;5.56;100.00;101904.63;5082101;28;20059;-63
2021/03/25 03:41:14;;;;;;;83.70;44.13;;;;;;;5.60;100.00;101900.88;5080196;28;20052;-64
2021/03/25 03:43:43;;;;;;;86.95;45.85;;;;;;;5.63;100.00;101909.69;5082556;28;20448;-61
2021/03/25 03:46:13;;;;;;;90.47;46.30;;;;;;;5.64;100.00;101896.25;5083776;28;20052;-61
2021/03/25 03:48:43;;;;;;;87.18;47.40;;;;;;;5.69;100.00;101904.03;5081598;28;20051;-63
2021/03/25 03:51:14;;;;;;;90.68;44.58;;;;;;;5.65;100.00;101902.44;5080308;28;20051;-63
2021/03/25 03:53:40;;;;;;;88.90;46.67;;;;;;;5.65;100.00;101897.97;5080950;28;20435;-61
2021/03/25 03:56:14;;;;;;;84.97;42.95;;;;;;;5.64;100.00;101901.59;5082396;28;20489;-61
2021/03/25 03:58:46;;;;;;;86.30;43.25;;;;;;;5.67;100.00;101898.75;5080873;28;20052;-61
2021/03/25 04:01:20;;;;;;;94.78;42.72;;;;;;;5.75;100.00;101898.34;5079668;28;20133;-61
2021/03/25 04:03:48;;;;;;;82.78;42.83;;;;;;;5.79;100.00;101897.25;5081550;28;20123;-62
2021/03/25 04:06:22;;;;;;;85.63;41.85;;;;;;;5.77;100.00;101896.47;5082374;28;20451;-63
2021/03/25 04:08:54;;;;;;;84.85;45.75;;;;;;;5.80;100.00;101896.34;5080674;28;20578;-61
2021/03/25 04:11:27;;;;;;;82.35;43.97;;;;;;;5.79;100.00;101890.09;5080038;28;20052;-61
2021/03/25 04:13:59;;;;;;;79.47;43.03;;;;;;;5.82;100.00;101894.44;5081303;28;20123;-62
2021/03/25 04:16:28;;;;;;;84.65;44.25;;;;;;;5.82;100.00;101891.75;5081956;28;20067;-63
2021/03/25 04:18:59;;;;;;;94.53;44.08;;;;;;;5.87;100.00;101895.03;5081895;28;20412;-64
2021/03/25 04:21:29;;;;;;;90.32;43.97;;;;;;;5.85;100.00;101883.56;5081027;28;20506;-62
2021/03/25 04:23:58;;;;;;;87.57;43.22;;;;;;;5.92;100.00;101890.34;5081830;28;20060;-62
2021/03/25 04:26:30;;;;;;;84.30;44.63;;;;;;;5.90;100.00;101892.22;5080645;28;20040;-61
2021/03/25 04:29:02;;;;;;;77.75;42.95;;;;;;;5.96;100.00;101894.56;5081658;28;20048;-63
2021/03/25 04:31:29;;;;;;;88.18;44.78;;;;;;;5.96;100.00;101896.38;5079612;28;20128;-61
2021/03/25 04:33:56;;;;;;;78.82;42.85;;;;;;;5.91;100.00;101893.94;5080265;28;20048;-62
2021/03/25 04:36:25;;;;;;;92.70;47.22;;;;;;;5.88;100.00;101894.09;5035167;22;20378;-63
2021/03/25 04:38:52;;;;;;;88.35;46.10;;;;;;;5.95;100.00;101892.00;5084103;28;20044;-61
2021/03/25 04:41:19;;;;;;;89.03;45.42;;;;;;;5.90;100.00;101883.34;5088019;28;20047;-61
2021/03/25 04:43:48;;;;;;;87.45;45.30;;;;;;;5.91;100.00;101893.94;5089316;28;20048;-61
2021/03/25 04:46:46;;;;;;;89.13;44.20;;;;;;;5.91;100.00;101887.75;5085860;28;20093;-63
2021/03/25 04:49:17;;;;;;;95.55;45.45;;;;;;;5.95;100.00;101889.31;5089878;28;20047;-63
2021/03/25 04:51:43;;;;;;;85.25;46.38;;;;;;;5.94;100.00;101892.94;5087962;28;20048;-63
2021/03/25 04:54:26;;;;;;;87.70;42.97;;;;;;;5.94;100.00;101885.75;5088863;28;20508;-61
2021/03/25 04:56:53;;;;;;;84.22;44.22;;;;;;;5.95;100.00;101884.81;5080216;28;20048;-61
2021/03/25 04:59:22;;;;;;;86.38;44.50;;;;;;;5.94;100.00;101879.56;5085603;28;20385;-61
2021/03/25 05:01:48;;;;;;;87.18;45.65;;;;;;;5.92;100.00;101882.31;5087518;28;20048;-61
2021/03/25 05:04:15;;;;;;;91.60;43.88;;;;;;;5.93;100.00;101892.06;5086595;28;20043;-61
2021/03/25 05:06:47;;;;;;;87.32;46.42;;;;;;;6.01;100.00;101882.78;5089571;28;20059;-61
2021/03/25 05:09:15;;;;;;;96.47;46.88;;;;;;;5.99;100.00;101874.00;5086256;28;20447;-61
2021/03/25 05:11:42;;;;;;;93.88;44.72;;;;;;;6.03;100.00;101884.44;5085394;28;20055;-63
2021/03/25 05:14:16;;;;;;;83.40;46.20;;;;;;;6.05;100.00;101873.66;5085724;28;20052;-61
2021/03/25 05:16:59;;;;;;;90.80;46.92;;;;;;;6.01;100.00;101878.34;5089349;28;20473;-61
2021/03/25 05:19:39;;;;;;;83.28;43.30;;;;;;;5.97;100.00;101882.94;5087474;28;20105;-62
2021/03/25 05:22:14;;;;;;;92.88;46.17;;;;;;;6.03;100.00;101887.13;5088141;28;20036;-61
2021/03/25 05:24:45;;;;;;;90.72;47.22;;;;;;;6.02;100.00;101885.41;5086923;28;20052;-61
2021/03/25 05:27:16;;;;;;;91.85;46.03;;;;;;;6.01;100.00;101877.44;5084994;28;20048;-61
2021/03/25 05:29:43;;;;;;;92.35;46.67;;;;;;;6.01;100.00;101872.97;5087447;28;20051;-60
2021/03/25 05:32:15;;;;;;;95.90;48.92;;;;;;;5.97;100.00;101868.75;5086372;28;20055;-61
2021/03/25 05:34:42;;;;;;;90.93;46.17;;;;;;;5.93;100.00;101876.03;5088448;28;20051;-61
2021/03/25 05:37:08;;;;;;;83.13;45.67;;;;;;;5.87;100.00;101864.78;5089485;28;20404;-62
2021/03/25 05:39:35;;;;;;;84.90;43.42;;;;;;;5.81;100.00;101870.47;5087448;28;20113;-61
2021/03/25 05:42:11;;;;;;;88.18;43.67;;;;;;;5.77;100.00;101870.63;5084682;28;20047;-62
2021/03/25 05:45:15;;;;;;;91.00;45.08;;;;;;;5.72;100.00;101869.13;5088781;28;20538;-61
2021/03/25 05:48:01;;;;;;;104.53;49.63;;;;;;;5.72;100.00;101866.47;5055699;28;20503;-61
2021/03/25 05:50:40;;;;;;;95.47;48.80;;;;;;;5.81;100.00;101871.31;5087573;28;20056;-61
2021/03/25 05:53:17;;;;;;;101.85;48.45;;;;;;;5.83;100.00;101869.44;5088107;28;20101;-61
2021/03/25 05:55:54;;;;;;;94.15;47.97;;;;;;;5.81;100.00;101874.00;5086571;28;20051;-61
2021/03/25 05:58:32;;;;;;;103.43;50.55;;;;;;;5.83;100.00;101874.78;5084366;28;20568;-61
2021/03/25 06:01:10;;;;;;;109.15;51.03;;;;;;;5.84;100.00;101876.50;5085326;28;20078;-63
2021/03/25 06:03:41;;;;;;;98.38;47.42;;;;;;;5.85;100.00;101872.88;5088746;28;20488;-61
2021/03/25 06:06:20;;;;;;;89.00;48.33;;;;;;;5.87;100.00;101870.13;5088464;28;20132;-61
2021/03/25 06:08:54;;;;;;;106.40;49.28;;;;;;;5.91;100.00;101867.22;5086318;28;20160;-63
2021/03/25 06:11:32;;;;;;;101.47;51.45;;;;;;;5.94;100.00;101859.03;5085897;28;20070;-61
2021/03/25 06:14:07;;;;;;;107.25;52.97;;;;;;;6.01;100.00;101872.09;5074301;28;20102;-61
2021/03/25 06:17:08;;;;;;;104.03;51.13;;;;;;;6.14;100.00;101867.84;5086885;28;20473;-61
2021/03/25 06:19:55;;;;;;;101.30;51.13;;;;;;;6.17;100.00;101867.69;5062604;28;20047;-64
2021/03/25 06:22:28;;;;;;;100.07;49.05;;;;;;;6.28;100.00;101875.97;5085619;28;20040;-63
2021/03/25 06:25:20;;;;;;;98.30;49.03;;;;;;;6.37;100.00;101879.09;5088906;28;20440;-61
2021/03/25 06:28:03;;;;;;;105.75;51.40;;;;;;;6.34;100.00;101880.13;5086046;28;20708;-62
2021/03/25 06:30:32;;;;;;;106.07;52.50;;;;;;;6.38;100.00;101880.84;5085361;28;20469;-61
2021/03/25 06:33:03;;;;;;;89.88;46.05;;;;;;;6.44;100.00;101885.84;5085562;28;20065;-62
2021/03/25 06:35:35;;;;;;;100.78;49.10;;;;;;;6.51;100.00;101892.59;5087382;28;20113;-61
2021/03/25 06:38:06;;;;;;;99.22;49.78;;;;;;;6.54;100.00;101903.13;5084626;28;20052;-62
2021/03/25 06:40:37;;;;;;;97.50;49.58;;;;;;;6.57;100.00;101892.25;5083167;28;20063;-61
2021/03/25 06:43:10;;;;;;;97.60;51.55;;;;;;;6.55;100.00;101901.28;5082847;28;20455;-61
2021/03/25 06:45:39;;;;;;;96.13;49.72;;;;;;;6.59;100.00;101897.50;5087718;28;20138;-62
2021/03/25 06:48:11;;;;;;;101.32;51.67;;;;;;;6.58;100.00;101877.03;5085651;28;20062;-63
2021/03/25 06:50:39;;;;;;;97.55;51.40;;;;;;;6.54;100.00;101871.00;5084055;28;20052;-61
2021/03/25 06:53:19;;;;;;;105.68;51.25;;;;;;;6.61;100.00;101872.41;5085483;28;20048;-61
2021/03/25 06:58:20;;;;;;;104.90;52.25;;;;;;;6.72;100.00;101879.81;5070046;23;20070;-62
2021/03/25 07:00:54;;;;;;;109.38;55.00;;;;;;;6.77;100.00;101876.88;5078032;28;20060;-63
2021/03/25 07:05:48;;;;;;;101.10;50.15;;;;;;;6.87;100.00;101883.44;5122637;22;20487;-63
2021/03/25 07:08:19;;;;;;;99.10;49.50;;;;;;;6.95;100.00;101896.38;5125096;27;20108;-61
2021/03/25 07:10:49;;;;;;;110.45;52.28;;;;;;;7.02;100.00;101905.78;5124960;27;20047;-61
2021/03/25 07:13:19;;;;;;;105.30;52.30;;;;;;;6.97;100.00;101900.72;5123237;27;20055;-63
2021/03/25 07:15:46;;;;;;;110.72;54.13;;;;;;;6.95;100.00;101886.56;5126590;27;20035;-62
2021/03/25 07:18:25;;;;;;;106.85;50.75;;;;;;;7.01;100.00;101880.84;5126290;27;20503;-61
2021/03/25 07:21:06;;;;;;;;;;;;;;;7.14;100.00;101880.13;5127594;27;20040;-63
2021/03/25 07:23:43;;;;;;;96.80;47.33;;;;;;;7.25;100.00;101891.09;5101299;27;19939;-63
2021/03/25 07:29:18;;;;;;;101.10;50.25;;;;;;;7.28;100.00;101911.47;5068322;22;20463;-61
2021/03/25 07:31:51;;;;;;;104.68;52.95;;;;;;;7.26;100.00;101906.22;5063258;28;20044;-63
2021/03/25 07:34:30;;;;;;;99.45;49.13;;;;;;;7.29;100.00;101906.03;5066401;28;20048;-61
2021/03/25 07:36:58;;;;;;;108.07;51.03;;;;;;;7.45;100.00;101908.69;5066899;28;20091;-61
2021/03/25 07:39:27;;;;;;;98.13;52.25;;;;;;;7.77;100.00;101903.22;5065284;28;20044;-63
2021/03/25 07:41:56;;;;;;;92.95;48.00;;;;;;;7.85;100.00;101918.84;5064725;28;20082;-64
2021/03/25 07:44:41;;;;;;;104.55;50.33;;;;;;;8.10;100.00;101917.34;5065383;28;20127;-61
2021/03/25 07:47:26;;;;;;;95.45;50.25;;;;;;;8.11;100.00;101924.44;5062983;28;20047;-61
2021/03/25 07:49:52;;;;;;;99.63;51.65;;;;;;;8.01;100.00;101926.81;5067701;28;20051;-61
2021/03/25 07:52:29;;;;;;;97.97;50.63;;;;;;;8.10;100.00;101934.31;5068785;28;20041;-61
2021/03/25 07:55:11;;;;;;;104.72;53.85;;;;;;;7.84;100.00;101927.84;5068399;28;20055;-62
2021/03/25 07:57:40;;;;;;;105.57;51.78;;;;;;;7.75;100.00;101937.28;5068877;28;20049;-61
2021/03/25 08:00:16;;;;;;;103.07;51.27;;;;;;;7.79;100.00;101935.28;5069115;28;20110;-62
2021/03/25 08:02:43;;;;;;;103.95;52.65;;;;;;;7.85;100.00;101926.91;5065912;28;20048;-61
2021/03/25 08:05:23;;;;;;;101.00;50.70;;;;;;;7.74;100.00;101940.06;5067707;28;20401;-61
2021/03/25 08:07:52;;;;;;;103.93;52.08;;;;;;;7.73;100.00;101933.84;5068276;28;20149;-61
2021/03/25 08:10:34;;;;;;;98.60;49.80;;;;;;;7.84;100.00;101931.38;5068113;28;20537;-61
2021/03/25 08:13:03;;;;;;;107.28;54.95;;;;;;;8.05;100.00;101931.91;5069062;28;20174;-61
2021/03/25 08:15:36;;;;;;;101.63;51.20;;;;;;;8.36;100.00;101924.66;5066640;28;21380;-62
2021/03/25 08:18:19;;;;;;;100.47;49.45;;;;;;;8.51;100.00;101922.00;5067657;28;20052;-61
2021/03/25 08:20:54;;;;;;;94.90;48.88;;;;;;;8.85;100.00;101919.84;5066890;28;20084;-62
2021/03/25 08:23:38;;;;;;;86.10;47.17;;;;;;;8.90;100.00;101920.41;5067106;28;20071;-61
2021/03/25 08:26:11;;;;;;;95.57;47.92;;;;;;;9.00;100.00;101918.88;5065380;28;20063;-61
2021/03/25 08:28:49;;;;;;;86.50;45.30;;;;;;;9.29;100.00;101922.31;5063119;28;20045;-61
2021/03/25 08:31:28;;;;;;;83.93;44.78;;;;;;;9.62;100.00;101923.69;5062689;28;20044;-61
2021/03/25 08:34:18;;;;;;;80.78;43.85;;;;;;;9.71;100.00;101927.59;5065528;28;20057;-63
2021/03/25 08:37:05;;;;;;;71.43;40.75;;;;;;;9.63;100.00;101935.34;5062054;28;20048;-62
2021/03/25 08:42:04;;;;;;;76.72;39.90;;;;;;;9.91;100.00;101928.06;5055327;22;20056;-63
2021/03/25 08:44:37;;;;;;;77.95;41.22;;;;;;;10.05;100.00;101936.03;5049423;28;20109;-62
2021/03/25 08:47:10;;;;;;;79.32;42.00;;;;;;;10.06;100.00;101927.00;5059122;28;20044;-63
2021/03/25 08:49:40;;;;;;;77.75;39.83;;;;;;;9.98;100.00;101922.16;5059267;28;20083;-63
2021/03/25 08:52:13;;;;;;;72.97;41.90;;;;;;;10.15;100.00;101933.59;5059379;28;20072;-62
2021/03/25 08:54:43;;;;;;;69.22;41.72;;;;;;;10.20;100.00;101925.19;5057610;28;20045;-63
2021/03/25 08:57:15;;;;;;;76.65;41.20;;;;;;;10.10;100.00;101925.84;5060132;28;20053;-63
2021/03/25 08:59:46;;;;;;;73.13;39.17;;;;;;;10.34;100.00;101925.97;5058771;28;20102;-61
2021/03/25 09:02:18;;;;;;;73.75;39.65;;;;;;;10.54;100.00;101928.22;5057195;28;20102;-62
2021/03/25 09:04:52;;;;;;;74.30;38.38;;;;;;;10.82;100.00;101927.97;5060663;28;20056;-61
2021/03/25 09:07:18;;;;;;;62.78;36.33;;;;;;;10.44;100.00;101936.94;5060842;28;20064;-64
2021/03/25 09:09:47;;;;;;;71.22;37.75;;;;;;;10.23;100.00;101930.34;5059954;28;20048;-64
2021/03/25 09:12:19;;;;;;;72.40;38.03;;;;;;;10.15;100.00;101936.28;5049925;28;20110;-64
2021/03/25 09:14:45;;;;;;;71.13;38.65;;;;;;;10.21;100.00;101937.69;5059298;28;20059;-63
2021/03/25 09:17:16;;;;;;;70.68;39.50;;;;;;;10.36;100.00;101939.31;5057852;28;20044;-63
2021/03/25 09:19:45;;;;;;;69.00;40.40;;;;;;;10.47;100.00;101939.41;5061023;28;20561;-64
2021/03/25 09:22:33;;;;;;;73.38;40.13;;;;;;;10.58;100.00;101940.50;5058377;28;20068;-62
2021/03/25 09:25:15;;;;;;;69.63;39.85;;;;;;;10.76;100.00;101938.31;5058655;28;20494;-62
2021/03/25 09:27:56;;;;;;;70.65;39.47;;;;;;;10.62;100.00;101926.69;5057894;28;20119;-63
2021/03/25 09:30:31;;;;;;;69.45;40.28;;;;;;;10.46;100.00;101929.63;5058793;28;20052;-63
2021/03/25 09:33:31;;;;;;;65.88;39.80;;;;;;;10.83;100.00;101924.28;5058782;28;20056;-62
2021/03/25 09:35:57;;;;;;;71.55;41.45;;;;;;;10.68;100.00;101930.78;5059994;28;20051;-63
2021/03/25 09:38:31;;;;;;;73.85;41.47;;;;;;;10.67;100.00;101934.44;5058417;28;20048;-62
2021/03/25 09:40:58;;;;;;;77.57;42.53;;;;;;;10.95;100.00;101935.13;5057307;28;20056;-62
2021/03/25 09:43:40;;;;;;;67.15;40.72;;;;;;;11.07;100.00;101928.84;5058117;28;20064;-62
2021/03/25 09:46:39;;;;;;;68.05;40.05;;;;;;;11.24;100.00;101921.34;5059554;28;20044;-62
2021/03/25 09:49:24;;;;;;;71.13;39.85;;;;;;;11.46;100.00;101918.75;4974146;28;20129;-61
2021/03/25 09:52:18;;;;;;;63.45;38.38;;;;;;;11.40;100.00;101917.38;5050298;28;20049;-62
2021/03/25 09:54:48;;;;;;;63.90;36.50;;;;;;;11.19;100.00;101919.00;5058959;28;20040;-62
2021/03/25 09:57:25;;;;;;;63.58;37.38;;;;;;;11.10;100.00;101919.66;5057473;28;20048;-62
2021/03/25 10:02:55;;;;;;;59.97;36.58;;;;;;;11.55;100.00;101919.91;5096509;22;20113;-64
2021/03/25 10:05:37;;;;;;;56.65;35.83;;;;;;;11.31;100.00;101920.78;5086132;28;20052;-63
2021/03/25 10:08:25;;;;;;;61.10;36.20;;;;;;;10.98;100.00;101918.75;5085560;28;20151;-62
2021/03/25 10:10:54;;;;;;;64.97;38.15;;;;;;;11.05;100.00;101922.72;5084151;28;20043;-63
2021/03/25 10:13:31;;;;;;;;;;;;;;;11.03;100.00;101913.88;5084524;28;20517;-62
2021/03/25 10:15:59;;;;;;;68.88;36.88;;;;;;;11.10;100.00;101923.25;5084760;28;19919;-63
2021/03/25 10:19:01;;;;;;;62.63;37.08;;;;;;;11.12;100.00;101926.66;5085089;28;20578;-62
2021/03/25 10:22:02;;;;;;;62.65;35.53;;;;;;;10.92;100.00;101927.28;5081966;28;20103;-62
2021/03/25 10:24:35;;;;;;;55.45;33.25;;;;;;;11.12;100.00;101923.13;5086191;28;20481;-62
2021/03/25 10:27:16;;;;;;;62.40;36.03;;;;;;;11.14;100.00;101926.56;5075242;28;20056;-63
2021/03/25 10:29:43;;;;;;;55.03;32.83;;;;;;;11.27;100.00;101926.50;5074279;28;20066;-62
2021/03/25 10:32:17;;;;;;;53.20;32.67;;;;;;;11.06;100.00;101913.66;5082979;28;20381;-62
2021/03/25 10:34:45;;;;;;;52.42;32.30;;;;;;;11.08;100.00;101914.41;5084309;28;20063;-61
2021/03/25 10:37:29;;;;;;;57.67;33.72;;;;;;;11.16;100.00;101917.41;5074362;28;20148;-62
2021/03/25 10:40:03;;;;;;;57.30;32.15;;;;;;;11.33;100.00;101907.19;5072312;28;20043;-61
2021/03/25 11:28:25;;;;;;;37.40;22.95;;;;;;;10.89;100.00;101905.97;5043092;22;20406;-61
2021/03/25 11:30:54;;;;;;;33.55;21.10;;;;;;;10.86;100.00;101901.66;5028801;28;20643;-64
2021/03/25 11:33:25;;;;;;;28.85;20.65;;;;;;;10.77;100.00;101902.31;5029336;28;20064;-64
2021/03/25 11:35:52;;;;;;;37.15;22.05;;;;;;;10.63;100.00;101906.00;5029247;28;20064;-62
2021/03/25 11:38:28;;;;;;;34.35;22.20;;;;;;;10.61;100.00;101905.25;5027664;28;20450;-62
2021/03/25 11:40:56;;;;;;;37.88;23.80;;;;;;;10.66;100.00;101900.44;5024322;28;20119;-61
2021/03/25 11:43:41;;;;;;;33.58;21.77;;;;;;;10.81;100.00;101904.69;5026188;28;20403;-61
2021/03/25 11:46:07;;;;;;;36.17;21.23;;;;;;;10.84;100.00;101904.44;5027301;28;20062;-62
2021/03/25 11:48:35;;;;;;;30.27;20.40;;;;;;;10.77;100.00;101907.72;5025251;28;20065;-62
2021/03/25 11:51:24;;;;;;;32.13;21.77;;;;;;;10.79;100.00;101909.34;5026085;28;20049;-62
2021/03/25 11:53:52;;;;;;;35.35;22.50;;;;;;;10.94;100.00;101893.88;5027708;28;20104;-63
2021/03/25 11:56:28;;;;;;;36.72;23.20;;;;;;;11.03;100.00;101897.72;5027451;28;20099;-62
2021/03/25 11:58:59;;;;;;;36.35;21.58;;;;;;;10.93;100.00;101902.06;5027377;28;20495;-61
2021/03/25 12:01:29;;;;;;;31.02;21.52;;;;;;;10.94;100.00;101904.66;5029529;28;20049;-62
2021/03/25 12:03:58;;;;;;;33.55;21.17;;;;;;;10.66;100.00;101903.97;5030001;28;20049;-62
2021/03/25 12:06:26;;;;;;;34.28;20.60;;;;;;;10.76;100.00;101906.88;5025974;28;20057;-62
2021/03/25 12:09:14;;;;;;;33.75;21.65;;;;;;;10.60;100.00;101909.81;5029123;28;20061;-62
2021/03/25 12:11:43;;;;;;;31.93;20.57;;;;;;;10.64;100.00;101902.34;5025254;28;20041;-62
2021/03/25 12:14:11;;;;;;;29.92;18.98;;;;;;;10.54;100.00;101912.06;5026298;28;20521;-64
2021/03/25 12:16:37;;;;;;;28.10;18.48;;;;;;;10.46;100.00;101913.47;5030562;28;20057;-61
2021/03/25 12:19:05;;;;;;;26.25;15.95;;;;;;;10.30;100.00;101902.88;5028677;28;20695;-62
2021/03/25 12:21:32;;;;;;;22.93;15.87;;;;;;;10.21;100.00;101911.63;5027374;28;20057;-62
2021/03/25 12:24:01;;;;;;;24.40;15.43;;;;;;;10.09;100.00;101907.97;5025831;28;20346;-61
2021/03/25 12:26:28;;;;;;;25.35;15.93;;;;;;;9.98;100.00;101905.16;5026729;28;20051;-64
2021/03/25 12:28:55;;;;;;;22.45;14.50;;;;;;;10.01;100.00;101907.63;5027929;28;20050;-64
2021/03/25 12:31:24;;;;;;;23.25;16.42;;;;;;;9.99;100.00;101902.34;5028510;28;22873;-62
2021/03/25 12:33:51;;;;;;;;;;;;;;;9.88;100.00;101904.06;5030270;28;20062;-64